createdAt,value
2023-01-02T00:00:59.910Z,64.42
2023-01-02T00:03:26.666Z,64.34
2023-01-02T00:05:54.368Z,64.24
2023-01-02T00:08:20.952Z,64.32
2023-01-02T00:10:47.567Z,64.04
2023-01-02T00:13:14.409Z,64.25
2023-01-02T00:15:40.911Z,64.32
2023-01-02T00:18:07.433Z,64.34
2023-01-02T00:20:34.115Z,64.18
2023-01-02T00:23:00.791Z,64.22
2023-01-02T00:25:27.493Z,64.38
2023-01-02T00:27:55.636Z,64.16
2023-01-02T00:30:22.487Z,64.06
2023-01-02T00:32:49.038Z,63.79
2023-01-02T00:35:15.534Z,64.03
2023-01-02T00:37:42.026Z,64.05
2023-01-02T00:40:13.679Z,63.92
2023-01-02T00:42:41.408Z,64.20
2023-01-02T00:45:10.543Z,63.92
2023-01-02T00:47:37.259Z,63.87
2023-01-02T00:50:04.403Z,63.96
2023-01-02T00:52:31.055Z,64.06
2023-01-02T00:54:57.604Z,63.77
2023-01-02T00:57:24.174Z,63.72
2023-01-02T00:59:50.650Z,63.58
2023-01-02T01:02:17.326Z,63.61
2023-01-02T01:04:43.850Z,63.64
2023-01-02T01:07:10.402Z,63.85
2023-01-02T01:09:36.922Z,63.57
2023-01-02T01:12:05.107Z,63.72
2023-01-02T01:14:32.014Z,63.56
2023-01-02T01:16:58.906Z,63.87
2023-01-02T01:19:29.478Z,63.64
2023-01-02T01:21:55.940Z,63.62
2023-01-02T01:24:22.470Z,63.62
2023-01-02T01:26:48.965Z,63.83
2023-01-02T01:29:15.478Z,63.60
2023-01-02T01:31:41.991Z,63.69
2023-01-02T01:34:08.570Z,63.82
2023-01-02T01:36:36.576Z,63.82
2023-01-02T01:39:03.442Z,63.91
2023-01-02T01:41:30.017Z,63.64
2023-01-02T01:43:59.287Z,63.66
2023-01-02T01:46:30.569Z,63.64
2023-01-02T01:49:27.289Z,63.59
2023-01-02T01:52:08.210Z,63.42
2023-01-02T01:54:44.450Z,63.92
2023-01-02T01:57:37.083Z,63.51
2023-01-02T02:00:05.134Z,63.47
2023-01-02T02:02:33.551Z,63.71
2023-01-02T02:05:05.742Z,63.73
2023-01-02T02:07:35.472Z,63.57
2023-01-02T02:10:08.567Z,63.59
2023-01-02T02:12:35.374Z,63.54
2023-01-02T02:15:02.089Z,63.65
2023-01-02T02:17:43.844Z,63.69
2023-01-02T02:20:47.283Z,64.07
2023-01-02T02:23:33.039Z,63.92
2023-01-02T02:25:59.450Z,63.65
2023-01-02T02:28:50.118Z,63.66
2023-01-02T02:31:52.152Z,63.90
2023-01-02T02:34:27.292Z,63.75
2023-01-02T02:37:22.612Z,64.02
2023-01-02T02:40:08.407Z,64.07
2023-01-02T02:42:49.412Z,63.82
2023-01-02T02:45:25.966Z,63.70
2023-01-02T02:48:02.333Z,63.98
2023-01-02T02:50:56.583Z,64.05
2023-01-02T02:53:35.271Z,64.10
2023-01-02T02:56:06.264Z,64.08
2023-01-02T02:58:33.326Z,63.75
2023-01-02T03:01:11.985Z,64.28
2023-01-02T03:03:38.583Z,64.12
2023-01-02T03:06:18.646Z,63.84
2023-01-02T03:09:01.369Z,64.17
2023-01-02T03:11:55.110Z,64.22
2023-01-02T03:14:31.338Z,63.99
2023-01-02T03:17:04.105Z,63.94
2023-01-02T03:19:39.068Z,63.95
2023-01-02T03:22:11.660Z,64.22
2023-01-02T03:24:40.869Z,63.91
2023-01-02T03:27:12.715Z,64.12
2023-01-02T03:30:02.927Z,64.30
2023-01-02T03:32:33.668Z,64.24
2023-01-02T03:35:03.476Z,63.91
2023-01-02T03:37:34.483Z,63.97
2023-01-02T03:40:08.369Z,64.29
2023-01-02T03:42:40.475Z,64.42
2023-01-02T03:45:14.790Z,64.22
2023-01-02T03:47:55.918Z,64.06
2023-01-02T03:50:27.461Z,64.21
2023-01-02T03:52:54.072Z,64.40
2023-01-02T03:55:23.850Z,64.19
2023-01-02T03:57:57.619Z,64.23
2023-01-02T04:00:34.422Z,64.10
2023-01-02T04:03:15.808Z,64.07
2023-01-02T04:06:05.732Z,64.39
2023-01-02T04:08:38.941Z,63.97
2023-01-02T04:11:07.798Z,64.11
2023-01-02T04:13:48.848Z,63.99
2023-01-02T04:16:21.002Z,64.25
2023-01-02T04:19:10.626Z,64.27
2023-01-02T04:21:40.176Z,64.06
2023-01-02T04:24:14.004Z,63.99
2023-01-02T04:26:57.192Z,64.37
2023-01-02T04:29:24.109Z,64.21
2023-01-02T04:31:56.201Z,64.20
2023-01-02T04:34:25.507Z,64.19
2023-01-02T04:36:52.039Z,64.08
2023-01-02T04:39:21.673Z,63.93
2023-01-02T04:41:48.974Z,64.00
2023-01-02T04:44:15.437Z,64.15
2023-01-02T04:46:42.016Z,64.23
2023-01-02T04:49:09.879Z,64.10
2023-01-02T04:51:36.366Z,64.27
2023-01-02T04:54:02.890Z,64.06
2023-01-02T04:56:29.417Z,64.38
2023-01-02T04:58:55.882Z,64.03
2023-01-02T05:01:22.757Z,64.30
2023-01-02T05:03:52.634Z,64.39
2023-01-02T05:06:19.347Z,64.09
2023-01-02T05:08:45.901Z,64.57
2023-01-02T05:11:16.640Z,64.14
2023-01-02T05:13:43.234Z,64.54
2023-01-02T05:16:10.443Z,64.29
2023-01-02T05:18:37.525Z,64.25
2023-01-02T05:21:07.143Z,64.17
2023-01-02T05:23:49.471Z,64.18
2023-01-02T05:26:17.687Z,64.15
2023-01-02T05:28:44.953Z,64.39
2023-01-02T05:31:12.264Z,64.32
2023-01-02T05:33:39.254Z,64.02
2023-01-02T05:36:07.247Z,64.25
2023-01-02T05:38:35.056Z,64.02
2023-01-02T05:41:06.459Z,64.13
2023-01-02T05:43:35.230Z,64.19
2023-01-02T05:46:15.713Z,64.14
2023-01-02T05:48:44.490Z,63.62
2023-01-02T05:51:15.151Z,64.11
2023-01-02T05:53:41.872Z,63.91
2023-01-02T05:56:08.706Z,63.81
2023-01-02T05:58:37.369Z,63.95
2023-01-02T06:01:06.299Z,63.83
2023-01-02T06:03:33.228Z,63.82
2023-01-02T06:06:10.600Z,64.20
2023-01-02T06:08:38.202Z,64.04
2023-01-02T06:11:05.643Z,63.94
2023-01-02T06:13:33.919Z,64.16
2023-01-02T06:16:01.866Z,64.15
2023-01-02T06:18:30.339Z,63.82
2023-01-02T06:21:01.282Z,63.90
2023-01-02T06:23:28.258Z,63.92
2023-01-02T06:25:55.061Z,64.07
2023-01-02T06:28:22.058Z,63.75
2023-01-02T06:30:48.547Z,63.73
2023-01-02T06:33:15.118Z,63.62
2023-01-02T06:35:41.637Z,63.84
2023-01-02T06:38:08.310Z,63.69
2023-01-02T06:40:34.875Z,63.90
2023-01-02T06:43:02.340Z,64.09
2023-01-02T06:45:31.668Z,63.86
2023-01-02T06:47:58.465Z,64.11
2023-01-02T06:50:31.234Z,64.21
2023-01-02T06:53:01.059Z,63.89
2023-01-02T06:55:27.587Z,64.02
2023-01-02T06:57:54.229Z,64.13
2023-01-02T07:00:20.842Z,64.23
2023-01-02T07:02:47.548Z,64.41
2023-01-02T07:05:17.369Z,63.70
2023-01-02T07:07:46.746Z,63.77
2023-01-02T07:10:13.369Z,63.57
2023-01-02T07:12:39.887Z,63.24
2023-01-02T07:15:07.294Z,62.84
2023-01-02T07:17:34.302Z,63.19
2023-01-02T07:20:02.461Z,62.90
2023-01-02T07:22:29.407Z,62.69
2023-01-02T07:24:55.918Z,62.77
2023-01-02T07:27:22.453Z,62.98
2023-01-02T07:29:49.104Z,62.94
2023-01-02T07:32:15.669Z,62.83
2023-01-02T07:34:42.279Z,62.59
2023-01-02T07:37:08.847Z,63.03
2023-01-02T07:39:35.349Z,62.95
2023-01-02T07:42:01.859Z,62.59
2023-01-02T07:44:28.470Z,63.00
2023-01-02T07:46:55.010Z,63.18
2023-01-02T07:49:21.537Z,62.78
2023-01-02T07:51:48.045Z,62.67
2023-01-02T07:54:14.611Z,62.84
2023-01-02T07:56:41.128Z,62.77
2023-01-02T07:59:07.865Z,62.83
2023-01-02T08:01:34.518Z,63.21
2023-01-02T08:04:01.295Z,63.26
2023-01-02T08:06:27.907Z,63.28
2023-01-02T08:08:54.484Z,63.15
2023-01-02T08:11:22.705Z,63.24
2023-01-02T08:13:49.399Z,63.51
2023-01-02T08:16:20.395Z,63.34
2023-01-02T08:18:47.560Z,63.43
2023-01-02T08:21:14.504Z,63.09
2023-01-02T08:23:41.147Z,63.47
2023-01-02T08:26:10.209Z,63.24
2023-01-02T08:28:38.411Z,63.62
2023-01-02T08:31:23.252Z,63.82
2023-01-02T08:33:49.935Z,63.45
2023-01-02T08:36:18.602Z,63.23
2023-01-02T08:38:45.681Z,63.46
2023-01-02T08:41:12.218Z,63.47
2023-01-02T08:43:39.003Z,63.72
2023-01-02T08:46:08.609Z,63.93
2023-01-02T08:48:35.861Z,63.35
2023-01-02T08:51:04.085Z,63.92
2023-01-02T08:53:30.742Z,63.70
2023-01-02T08:56:20.353Z,63.61
2023-01-02T08:58:54.797Z,63.42
2023-01-02T09:01:22.276Z,63.67
2023-01-02T09:03:49.521Z,63.54
2023-01-02T09:06:21.523Z,63.90
2023-01-02T09:08:48.966Z,63.73
2023-01-02T09:11:18.954Z,63.91
2023-01-02T09:13:45.777Z,63.63
2023-01-02T09:16:12.716Z,63.60
2023-01-02T09:18:40.276Z,63.88
2023-01-02T09:21:07.776Z,63.53
2023-01-02T09:23:35.580Z,63.72
2023-01-02T09:26:05.091Z,63.99
2023-01-02T09:28:33.703Z,63.65
2023-01-02T09:31:08.584Z,63.81
2023-01-02T09:33:39.184Z,63.60
2023-01-02T09:36:08.282Z,63.82
2023-01-02T09:38:35.414Z,63.94
2023-01-02T09:41:11.020Z,63.42
2023-01-02T09:43:48.287Z,63.70
2023-01-02T09:46:33.012Z,63.85
2023-01-02T09:49:01.336Z,63.93
2023-01-02T09:51:28.384Z,63.93
2023-01-02T09:53:55.307Z,63.97
2023-01-02T09:56:33.390Z,63.89
2023-01-02T09:59:12.947Z,63.63
2023-01-02T10:01:58.061Z,63.82
2023-01-02T10:04:41.908Z,63.79
2023-01-02T10:07:18.178Z,63.94
2023-01-02T10:10:15.407Z,63.58
2023-01-02T10:13:04.611Z,63.86
2023-01-02T10:15:31.870Z,63.70
2023-01-02T10:18:04.316Z,63.59
2023-01-02T10:20:39.211Z,63.57
2023-01-02T10:23:28.044Z,63.30
2023-01-02T10:26:00.606Z,63.30
2023-01-02T10:28:51.747Z,63.21
2023-01-02T10:31:31.561Z,62.99
2023-01-02T10:34:00.326Z,63.22
2023-01-02T10:36:40.782Z,63.16
2023-01-02T10:39:12.042Z,62.91
2023-01-02T10:41:40.025Z,63.01
2023-01-02T10:44:27.982Z,62.80
2023-01-02T10:46:56.795Z,63.24
2023-01-02T10:49:25.535Z,62.98
2023-01-02T10:52:22.240Z,63.26
2023-01-02T10:54:56.673Z,62.81
2023-01-02T10:57:33.578Z,63.01
2023-01-02T11:00:01.389Z,62.80
2023-01-02T11:02:38.038Z,63.08
2023-01-02T11:05:17.943Z,62.88
2023-01-02T11:07:48.569Z,62.73
2023-01-02T11:10:33.734Z,62.49
2023-01-02T11:13:14.047Z,62.50
2023-01-02T11:16:04.288Z,62.53
2023-01-02T11:18:34.019Z,62.63
2023-01-02T11:21:06.037Z,62.38
2023-01-02T11:23:39.369Z,62.38
2023-01-02T11:26:23.949Z,62.34
2023-01-02T11:28:54.014Z,62.44
2023-01-02T11:31:22.371Z,62.51
2023-01-02T11:33:49.301Z,62.65
2023-01-02T11:36:18.639Z,62.57
2023-01-02T11:38:58.896Z,62.10
2023-01-02T11:42:11.346Z,62.04
2023-01-02T11:44:53.080Z,62.20
2023-01-02T11:47:32.017Z,62.55
2023-01-02T11:49:59.058Z,62.42
2023-01-02T11:52:38.478Z,62.36
2023-01-02T11:55:29.416Z,61.94
2023-01-02T11:58:08.086Z,62.36
2023-01-02T12:00:38.917Z,62.32
2023-01-02T12:03:34.939Z,61.91
2023-01-02T12:06:31.961Z,62.19
2023-01-02T12:09:25.938Z,61.89
2023-01-02T12:12:11.537Z,61.91
2023-01-02T12:14:46.879Z,61.89
2023-01-02T12:17:55.637Z,61.94
2023-01-02T12:20:41.534Z,62.06
2023-01-02T12:23:31.486Z,61.88
2023-01-02T12:26:20.375Z,62.28
2023-01-02T12:29:03.712Z,62.05
2023-01-02T12:31:43.772Z,62.10
2023-01-02T12:34:43.734Z,61.77
2023-01-02T12:37:20.197Z,62.09
2023-01-02T12:39:55.695Z,61.97
2023-01-02T12:42:28.196Z,61.82
2023-01-02T12:44:57.225Z,61.63
2023-01-02T12:47:39.717Z,61.88
2023-01-02T12:50:12.344Z,61.51
2023-01-02T12:53:08.323Z,61.59
2023-01-02T12:55:34.824Z,61.84
2023-01-02T12:58:11.580Z,61.82
2023-01-02T13:00:49.406Z,61.43
2023-01-02T13:03:40.450Z,61.73
2023-01-02T13:06:46.700Z,61.59
2023-01-02T13:09:19.953Z,61.53
2023-01-02T13:11:55.302Z,61.34
2023-01-02T13:14:27.553Z,61.58
2023-01-02T13:17:23.552Z,61.30
2023-01-02T13:19:59.030Z,61.41
2023-01-02T13:22:46.803Z,61.06
2023-01-02T13:25:19.974Z,61.00
2023-01-02T13:27:48.771Z,61.16
2023-01-02T13:30:33.301Z,61.28
2023-01-02T13:33:01.919Z,61.11
2023-01-02T13:35:36.679Z,61.25
2023-01-02T13:38:07.368Z,61.22
2023-01-02T13:40:34.845Z,61.09
2023-01-02T13:43:06.064Z,61.18
2023-01-02T13:45:43.041Z,61.28
2023-01-02T13:48:40.216Z,61.32
2023-01-02T13:51:13.051Z,60.72
2023-01-02T13:53:47.933Z,61.17
2023-01-02T13:56:20.603Z,61.06
2023-01-02T13:58:56.370Z,60.93
2023-01-02T14:01:25.979Z,60.99
2023-01-02T14:04:08.060Z,60.79
2023-01-02T14:06:37.450Z,60.66
2023-01-02T14:09:03.914Z,60.88
2023-01-02T14:11:56.446Z,60.96
2023-01-02T14:14:35.754Z,60.74
2023-01-02T14:17:18.328Z,60.89
2023-01-02T14:19:45.336Z,60.80
2023-01-02T14:22:15.818Z,60.76
2023-01-02T14:24:51.789Z,60.85
2023-01-02T14:27:33.200Z,60.81
2023-01-02T14:30:05.367Z,60.58
2023-01-02T14:32:34.932Z,60.44
2023-01-02T14:35:05.656Z,60.79
2023-01-02T14:37:42.326Z,60.65
2023-01-02T14:40:34.910Z,60.69
2023-01-02T14:43:27.868Z,60.54
2023-01-02T14:46:23.149Z,60.71
2023-01-02T14:49:01.298Z,60.62
2023-01-02T14:51:48.896Z,60.82
2023-01-02T14:54:17.930Z,60.43
2023-01-02T14:56:50.855Z,60.70
2023-01-02T14:59:31.963Z,60.79
2023-01-02T15:02:04.876Z,60.65
2023-01-02T15:04:39.032Z,61.00
2023-01-02T15:07:16.953Z,60.43
2023-01-02T15:09:51.766Z,60.86
2023-01-02T15:12:45.283Z,60.55
2023-01-02T15:15:14.058Z,60.69
2023-01-02T15:17:41.080Z,60.78
2023-01-02T15:20:08.777Z,60.72
2023-01-02T15:22:37.642Z,60.68
2023-01-02T15:25:04.746Z,60.82
2023-01-02T15:27:33.762Z,60.60
2023-01-02T15:30:05.488Z,60.84
2023-01-02T15:32:33.492Z,60.80
2023-01-02T15:35:36.228Z,60.71
2023-01-02T15:38:05.272Z,61.08
2023-01-02T15:40:35.401Z,60.93
2023-01-02T15:43:31.080Z,61.02
2023-01-02T15:45:58.335Z,61.05
2023-01-02T15:48:30.111Z,61.02
2023-01-02T15:50:58.894Z,61.06
2023-01-02T15:53:40.143Z,60.79
2023-01-02T15:56:12.016Z,60.86
2023-01-02T15:58:48.327Z,60.82
2023-01-02T16:01:22.218Z,61.00
2023-01-02T16:04:02.182Z,60.80
2023-01-02T16:06:31.673Z,60.75
2023-01-02T16:09:00.570Z,61.20
2023-01-02T16:11:27.840Z,61.22
2023-01-02T16:14:27.377Z,60.77
2023-01-02T16:17:11.304Z,61.18
2023-01-02T16:19:45.167Z,61.18
2023-01-02T16:22:11.802Z,61.20
2023-01-02T16:24:49.970Z,61.06
2023-01-02T16:27:25.602Z,60.75
2023-01-02T16:29:53.700Z,61.06
2023-01-02T16:32:30.451Z,61.06
2023-01-02T16:35:28.514Z,61.02
2023-01-02T16:37:58.142Z,61.39
2023-01-02T16:41:00.645Z,61.12
2023-01-02T16:43:12.071Z,61.18
2023-01-02T16:45:39.313Z,61.29
2023-01-02T16:48:08.321Z,61.16
2023-01-02T16:50:41.082Z,61.17
2023-01-02T16:53:08.273Z,61.11
2023-01-02T16:55:34.963Z,61.19
2023-01-02T16:58:02.824Z,61.29
2023-01-02T17:00:29.690Z,61.16
2023-01-02T17:02:56.364Z,61.11
2023-01-02T17:05:34.430Z,61.28
2023-01-02T17:08:00.963Z,60.98
2023-01-02T17:10:28.817Z,61.32
2023-01-02T17:12:55.425Z,61.14
2023-01-02T17:15:21.954Z,61.28
2023-01-02T17:17:51.176Z,61.34
2023-01-02T17:20:18.579Z,61.15
2023-01-02T17:22:45.155Z,61.39
2023-01-02T17:25:15.929Z,61.31
2023-01-02T17:27:43.214Z,61.50
2023-01-02T17:30:12.890Z,61.15
2023-01-02T17:32:41.235Z,61.32
2023-01-02T17:35:10.940Z,61.46
2023-01-02T17:37:41.038Z,61.33
2023-01-02T17:40:10.181Z,61.18
2023-01-02T17:42:37.133Z,61.51
2023-01-02T17:45:04.158Z,61.56
2023-01-02T17:47:58.836Z,61.55
2023-01-02T17:50:17.432Z,61.40
2023-01-02T17:52:43.946Z,61.44
2023-01-02T17:55:10.583Z,61.58
2023-01-02T17:57:39.056Z,61.62
2023-01-02T18:00:09.123Z,61.51
2023-01-02T18:02:39.453Z,61.37
2023-01-02T18:05:07.212Z,61.50
2023-01-02T18:07:33.814Z,61.36
2023-01-02T18:10:09.244Z,61.42
2023-01-02T18:12:38.417Z,61.71
2023-01-02T18:15:13.808Z,61.57
2023-01-02T18:17:40.265Z,61.43
2023-01-02T18:20:11.762Z,61.49
2023-01-02T18:22:43.995Z,61.50
2023-01-02T18:25:24.417Z,61.60
2023-01-02T18:27:51.808Z,61.56
2023-01-02T18:30:22.335Z,61.44
2023-01-02T18:32:52.179Z,61.62
2023-01-02T18:38:38.070Z,61.77
2023-01-02T18:41:27.710Z,61.92
2023-01-02T18:44:07.025Z,61.83
2023-01-02T18:47:02.151Z,61.78
2023-01-02T18:49:25.120Z,61.76
2023-01-02T18:52:06.620Z,61.79
2023-01-02T18:54:34.266Z,61.59
2023-01-02T18:57:15.558Z,61.88
2023-01-02T18:59:50.385Z,61.80
2023-01-02T19:02:30.966Z,61.42
2023-01-02T19:05:01.235Z,61.50
2023-01-02T19:07:27.712Z,61.75
2023-01-02T19:10:07.793Z,61.72
2023-01-02T19:13:04.635Z,61.93
2023-01-02T19:15:50.927Z,61.54
2023-01-02T19:18:36.381Z,61.33
2023-01-02T19:21:08.896Z,61.63
2023-01-02T19:24:00.214Z,61.81
2023-01-02T19:26:34.240Z,61.86
2023-01-02T19:29:09.964Z,61.68
2023-01-02T19:32:02.628Z,61.82
2023-01-02T19:34:44.019Z,61.67
2023-01-02T19:37:10.508Z,61.74
2023-01-02T19:39:42.350Z,61.78
2023-01-02T19:42:21.894Z,61.61
2023-01-02T19:44:51.299Z,61.69
2023-01-02T19:47:20.021Z,61.68
2023-01-02T19:49:46.875Z,61.56
2023-01-02T19:52:15.804Z,61.56
2023-01-02T19:54:43.001Z,61.74
2023-01-02T19:57:11.104Z,61.53
2023-01-02T19:59:43.519Z,61.45
2023-01-02T20:02:10.707Z,61.38
2023-01-02T20:04:37.650Z,61.45
2023-01-02T20:07:04.263Z,61.38
2023-01-02T20:09:31.883Z,61.16
2023-01-02T20:12:17.078Z,61.06
2023-01-02T20:14:44.100Z,60.95
2023-01-02T20:17:11.202Z,60.71
2023-01-02T20:19:38.083Z,60.62
2023-01-02T20:22:05.598Z,60.61
2023-01-02T20:24:32.402Z,60.75
2023-01-02T20:27:00.723Z,60.44
2023-01-02T20:29:28.053Z,60.46
2023-01-02T20:31:55.172Z,60.18
2023-01-02T20:34:21.766Z,60.20
2023-01-02T20:36:48.743Z,60.21
2023-01-02T20:39:16.279Z,60.02
2023-01-02T20:41:43.239Z,59.96
2023-01-02T20:44:12.145Z,60.26
2023-01-02T20:46:39.506Z,60.01
2023-01-02T20:49:06.909Z,60.23
2023-01-02T20:51:35.336Z,60.11
2023-01-02T20:54:03.610Z,60.21
2023-01-02T20:56:30.958Z,60.04
2023-01-02T20:58:57.719Z,59.92
2023-01-02T21:01:24.934Z,59.63
2023-01-02T21:03:51.831Z,59.76
2023-01-02T21:06:18.556Z,59.47
2023-01-02T21:08:45.161Z,59.71
2023-01-02T21:11:11.745Z,59.41
2023-01-02T21:13:38.298Z,59.47
2023-01-02T21:16:05.110Z,59.00
2023-01-02T21:18:38.850Z,59.33
2023-01-02T21:21:11.410Z,59.22
2023-01-02T21:23:39.780Z,59.14
2023-01-02T21:26:09.043Z,59.29
2023-01-02T21:28:36.434Z,59.60
2023-01-02T21:31:03.278Z,59.43
2023-01-02T21:33:30.332Z,59.41
2023-01-02T21:36:01.251Z,59.46
2023-01-02T21:38:28.902Z,59.71
2023-01-02T21:41:16.953Z,59.52
2023-01-02T21:43:43.550Z,59.62
2023-01-02T21:46:10.262Z,59.83
2023-01-02T21:48:38.123Z,59.63
2023-01-02T21:51:05.716Z,59.94
2023-01-02T21:53:32.314Z,60.36
2023-01-02T21:55:59.520Z,60.51
2023-01-02T21:58:26.243Z,60.71
2023-01-02T22:00:52.815Z,60.72
2023-01-02T22:03:19.457Z,60.54
2023-01-02T22:05:46.059Z,60.96
2023-01-02T22:08:12.678Z,60.97
2023-01-02T22:10:39.295Z,60.87
2023-01-02T22:13:06.030Z,61.10
2023-01-02T22:15:32.693Z,61.13
2023-01-02T22:17:59.204Z,60.83
2023-01-02T22:20:25.867Z,60.87
2023-01-02T22:22:52.473Z,60.78
2023-01-02T22:25:19.064Z,60.84
2023-01-02T22:27:45.600Z,60.93
2023-01-02T22:30:24.833Z,60.98
2023-01-02T22:32:57.871Z,61.09
2023-01-02T22:35:24.416Z,60.97
2023-01-02T22:37:50.994Z,61.17
2023-01-02T22:40:17.808Z,61.00
2023-01-02T22:43:05.264Z,60.99
2023-01-02T22:45:52.785Z,60.86
2023-01-02T22:48:26.070Z,61.21
2023-01-02T22:50:55.490Z,61.05
2023-01-02T22:53:38.799Z,61.28
2023-01-02T22:56:15.996Z,61.15
2023-01-02T22:58:42.963Z,60.94
2023-01-02T23:01:30.632Z,61.06
2023-01-02T23:03:58.011Z,61.07
2023-01-02T23:06:25.359Z,61.06
2023-01-02T23:08:52.677Z,61.06
2023-01-02T23:11:20.502Z,61.21
2023-01-02T23:13:52.949Z,61.40
2023-01-02T23:16:41.510Z,61.36
2023-01-02T23:19:18.891Z,61.21
2023-01-02T23:21:57.231Z,61.17
2023-01-02T23:24:27.763Z,61.37
2023-01-02T23:26:57.159Z,61.23
2023-01-02T23:29:25.031Z,61.42
2023-01-02T23:31:52.494Z,61.59
2023-01-02T23:34:24.259Z,61.58
2023-01-02T23:36:52.385Z,61.33
2023-01-02T23:39:24.523Z,61.48
2023-01-02T23:41:52.237Z,61.60
2023-01-02T23:44:20.239Z,61.36
2023-01-02T23:46:47.268Z,61.23
2023-01-02T23:49:16.072Z,61.59
2023-01-02T23:51:43.838Z,61.39
2023-01-02T23:54:12.428Z,61.33
2023-01-02T23:56:40.683Z,61.68
2023-01-02T23:59:17.331Z,61.41
